Time;durP1;ratioP1;P1;durP2;ratioP2;P2;SDS_P1;SDS_P2;PMS_P1;PMS_P2;Temp;Humidity;BMP_temperature;BMP_pressure;BME280_temperature;BME280_humidity;BME280_pressure;Samples;Min_cycle;Max_cycle;Signal;HPM_P1;HPM_P2
2021/11/23 00:01:17;;;;;;;2.47;1.25;;;;;;;-0.28;97.79;99925.19;1626940;86;21014;-73
2021/11/23 00:03:44;;;;;;;1.92;1.30;;;;;;;-0.26;97.76;99934.15;1623586;86;21580;-73
2021/11/23 00:06:11;;;;;;;1.85;1.07;;;;;;;-0.24;97.73;99932.02;1640471;87;21142;-72
2021/11/23 00:08:38;;;;;;;3.33;1.30;;;;;;;-0.18;97.76;99936.29;1635571;86;20954;-72
2021/11/23 00:11:05;;;;;;;1.92;1.15;;;;;;;-0.15;97.72;99932.87;1627486;86;20995;-73
2021/11/23 00:13:32;;;;;;;2.40;0.98;;;;;;;-0.11;97.75;99937.13;1628542;86;21604;-73
2021/11/23 00:15:59;;;;;;;1.60;1.20;;;;;;;-0.08;97.66;99939.72;1629157;87;21465;-72
2021/11/23 00:18:26;;;;;;;2.37;1.30;;;;;;;-0.06;97.66;99937.98;1633083;86;21509;-72
2021/11/23 00:20:53;;;;;;;3.17;1.00;;;;;;;-0.04;97.63;99931.16;1636457;86;21495;-72
2021/11/23 00:23:20;;;;;;;3.02;1.42;;;;;;;-0.02;97.64;99924.31;1630051;87;20947;-73
2021/11/23 00:25:47;;;;;;;3.05;1.37;;;;;;;-0.01;97.61;99920.88;1636169;86;20977;-72
2021/11/23 00:28:14;;;;;;;2.33;1.30;;;;;;;-0.01;97.60;99922.16;1639915;86;20963;-73
2021/11/23 00:30:43;;;;;;;2.10;1.17;;;;;;;0.00;97.66;99927.74;1638079;86;21069;-72
2021/11/23 00:33:10;;;;;;;1.37;1.02;;;;;;;0.03;97.69;99924.28;1631906;86;21450;-72
2021/11/23 00:35:37;;;;;;;2.53;1.00;;;;;;;0.04;97.69;99924.30;1631421;86;21089;-72
2021/11/23 00:38:05;;;;;;;2.85;0.80;;;;;;;0.07;97.67;99919.59;1642481;85;20997;-72
2021/11/23 00:40:32;;;;;;;;;;;;;;;0.08;97.63;99920.00;1628538;86;20971;-73
2021/11/23 00:43:03;;;;;;;2.03;1.00;;;;;;;0.11;97.65;99918.31;1628947;86;21045;-72
2021/11/23 00:45:27;;;;;;;4.45;1.10;;;;;;;0.13;97.70;99917.86;1628658;86;20978;-72
2021/11/23 00:47:54;;;;;;;1.60;0.85;;;;;;;0.17;97.69;99902.89;1632596;86;20978;-72
2021/11/23 00:50:21;;;;;;;1.10;0.97;;;;;;;0.21;97.67;99906.30;1632299;86;21250;-72
2021/11/23 00:52:48;;;;;;;4.22;1.10;;;;;;;0.23;97.66;99898.17;1628680;86;21719;-72
2021/11/23 00:55:14;;;;;;;2.10;1.27;;;;;;;0.25;97.71;99905.84;1617305;86;21747;-73
2021/11/23 00:57:42;;;;;;;1.52;0.82;;;;;;;0.30;97.73;99906.70;1621658;86;21029;-73
2021/11/23 01:00:12;;;;;;;2.00;0.90;;;;;;;0.32;97.75;99893.43;1633598;86;21081;-73
2021/11/23 01:02:39;;;;;;;2.62;1.00;;;;;;;0.33;97.71;99887.42;1629657;86;21561;-73
2021/11/23 01:05:07;;;;;;;2.75;1.12;;;;;;;0.31;97.59;99881.42;1617956;86;20939;-72
2021/11/23 01:07:34;;;;;;;1.92;1.10;;;;;;;0.31;97.66;99878.86;1629159;86;21896;-73
2021/11/23 01:10:04;;;;;;;2.55;1.15;;;;;;;0.33;97.74;99877.15;1626702;86;21011;-72
2021/11/23 01:12:30;;;;;;;2.85;0.90;;;;;;;0.36;97.81;99868.15;1611758;87;20938;-73
2021/11/23 01:14:58;;;;;;;2.37;1.27;;;;;;;0.36;97.78;99869.43;1640662;86;20970;-73
2021/11/23 01:17:24;;;;;;;3.85;1.37;;;;;;;0.40;97.90;99858.30;1627852;86;21635;-73
2021/11/23 01:19:51;;;;;;;2.20;1.10;;;;;;;0.45;97.90;99861.71;1629091;86;21092;-73
2021/11/23 01:22:18;;;;;;;3.03;1.03;;;;;;;0.49;97.89;99856.13;1633746;86;21500;-72
2021/11/23 01:24:46;;;;;;;1.77;1.12;;;;;;;0.51;97.91;99848.84;1609456;86;21523;-73
2021/11/23 01:27:13;;;;;;;4.30;1.52;;;;;;;0.55;97.95;99840.23;1614678;86;21428;-72
2021/11/23 01:29:39;;;;;;;3.60;1.20;;;;;;;0.58;97.98;99845.36;1623175;86;20941;-72
2021/11/23 01:32:07;;;;;;;5.17;1.70;;;;;;;0.63;98.04;99839.77;1627545;86;21078;-72
2021/11/23 01:34:35;;;;;;;4.15;1.40;;;;;;;0.66;98.06;99838.47;1624026;86;20974;-72
2021/11/23 01:40:00;;;;;;;7.35;1.80;;;;;;;0.79;98.14;99812.72;1839263;75;22202;-72
2021/11/23 01:42:27;;;;;;;2.02;1.12;;;;;;;0.77;98.16;99820.86;1817211;77;20948;-72
2021/11/23 01:44:53;;;;;;;5.20;1.32;;;;;;;0.79;98.15;99815.29;1816935;77;21090;-72
2021/11/23 01:47:21;;;;;;;5.10;1.20;;;;;;;0.80;98.16;99811.84;1816166;77;23393;-72
2021/11/23 01:49:48;;;;;;;4.42;1.20;;;;;;;0.80;98.06;99809.27;1812854;77;20978;-72
2021/11/23 01:52:15;;;;;;;2.12;1.42;;;;;;;0.81;98.09;99810.97;1814625;77;21035;-72
2021/11/23 01:54:42;;;;;;;3.83;1.32;;;;;;;0.83;98.18;99802.39;1815371;77;21552;-72
2021/11/23 01:57:09;;;;;;;5.75;1.27;;;;;;;0.86;98.20;99801.52;1816871;77;21040;-72
2021/11/23 01:59:36;;;;;;;4.70;1.45;;;;;;;0.89;98.25;99800.20;1816444;77;20974;-72
2021/11/23 02:02:02;;;;;;;2.80;1.40;;;;;;;0.91;98.31;99793.34;1809343;77;20986;-72
2021/11/23 02:04:30;;;;;;;2.03;1.20;;;;;;;0.94;98.32;99784.33;1743282;80;21016;-72
2021/11/23 02:06:56;;;;;;;3.15;1.30;;;;;;;0.93;98.30;99777.48;1758565;79;22299;-72
2021/11/23 02:09:23;;;;;;;5.87;1.70;;;;;;;0.96;98.37;99772.32;1756589;80;22003;-72
2021/11/23 02:11:50;;;;;;;3.27;1.53;;;;;;;0.99;98.46;99768.44;1759159;79;21032;-72
2021/11/23 02:14:19;;;;;;;2.27;1.35;;;;;;;0.99;98.42;99762.02;1760685;79;21013;-72
2021/11/23 02:16:46;;;;;;;5.42;1.75;;;;;;;1.01;98.55;99757.72;1760588;79;21016;-73
2021/11/23 02:19:13;;;;;;;2.90;1.17;;;;;;;1.04;98.59;99757.69;1759838;79;21625;-73
2021/11/23 02:21:39;;;;;;;3.03;1.93;;;;;;;1.09;98.70;99755.94;1755825;79;21887;-73
2021/11/23 02:24:06;;;;;;;4.30;1.80;;;;;;;1.14;98.80;99749.89;1758353;79;21091;-73
2021/11/23 02:26:33;;;;;;;5.20;2.05;;;;;;;1.19;98.81;99737.85;1760502;79;21471;-74
2021/11/23 02:29:00;;;;;;;5.50;1.75;;;;;;;1.19;98.77;99720.69;1757016;79;21086;-73
2021/11/23 02:31:27;;;;;;;5.43;1.73;;;;;;;1.22;98.79;99717.24;1759086;81;21007;-73
2021/11/23 02:33:54;;;;;;;4.85;1.82;;;;;;;1.23;98.88;99711.22;1757870;79;21119;-73
2021/11/23 02:36:24;;;;;;;4.63;1.50;;;;;;;1.26;98.94;99708.61;1757819;79;21067;-73
2021/11/23 02:38:52;;;;;;;4.00;1.60;;;;;;;1.26;98.87;99712.47;1759241;79;21015;-73
2021/11/23 02:41:21;;;;;;;4.15;1.50;;;;;;;1.25;98.82;99709.50;1759946;81;21703;-73
2021/11/23 02:43:48;;;;;;;4.90;1.92;;;;;;;1.26;98.87;99709.50;1726305;81;20939;-73
2021/11/23 02:46:15;;;;;;;4.92;1.98;;;;;;;1.27;98.96;99711.19;1760416;80;21140;-73
2021/11/23 02:48:43;;;;;;;4.75;1.87;;;;;;;1.29;99.05;99713.76;1758972;80;21003;-73
2021/11/23 02:51:16;;;;;;;5.22;2.08;;;;;;;1.29;99.03;99704.31;1754244;80;21936;-73
2021/11/23 02:53:50;;;;;;;4.30;1.75;;;;;;;1.31;99.04;99714.58;1757665;80;21708;-73
2021/11/23 02:56:18;;;;;;;3.10;2.02;;;;;;;1.33;99.14;99702.56;1761946;79;21026;-73
2021/11/23 02:58:48;;;;;;;4.50;1.95;;;;;;;1.34;99.17;99704.25;1730450;81;21451;-73
2021/11/23 03:01:18;;;;;;;3.02;1.62;;;;;;;1.35;99.24;99704.69;1763343;79;20983;-73
2021/11/23 03:03:46;;;;;;;4.72;1.98;;;;;;;1.33;99.23;99705.98;1750374;80;21656;-73
2021/11/23 03:06:13;;;;;;;3.33;1.92;;;;;;;1.34;99.34;99706.83;1736011;81;20958;-73
2021/11/23 03:08:41;;;;;;;3.72;1.77;;;;;;;1.37;99.42;99704.22;1757963;80;21133;-73
2021/11/23 03:11:08;;;;;;;4.37;2.15;;;;;;;1.40;99.50;99700.77;1760478;80;21088;-73
2021/11/23 03:13:35;;;;;;;5.65;1.90;;;;;;;1.42;99.55;99699.88;1728587;81;21588;-73
2021/11/23 03:16:02;;;;;;;3.30;2.10;;;;;;;1.44;99.57;99704.59;1755744;80;21043;-73
2021/11/23 03:18:29;;;;;;;6.45;1.92;;;;;;;1.44;99.54;99698.16;1757587;80;21552;-73
2021/11/23 03:20:56;;;;;;;5.07;2.20;;;;;;;1.38;99.82;99681.94;1745069;81;21041;-73
2021/11/23 03:23:23;;;;;;;4.10;1.97;;;;;;;1.38;99.82;99681.94;1746153;81;21464;-73
2021/11/23 03:25:50;;;;;;;2.13;1.73;;;;;;;1.47;99.68;99700.69;1744628;81;21038;-73
2021/11/23 03:28:17;;;;;;;4.53;1.85;;;;;;;1.49;99.76;99698.96;1739812;81;21058;-73
2021/11/23 03:30:44;;;;;;;2.77;1.90;;;;;;;1.51;99.86;99688.23;1745224;81;21117;-73
2021/11/23 03:33:11;;;;;;;3.00;1.50;;;;;;;1.54;99.95;99685.62;1748011;81;21609;-73
2021/11/23 03:35:43;;;;;;;3.20;1.70;;;;;;;1.56;99.99;99687.72;1741595;81;21597;-73
2021/11/23 03:38:12;;;;;;;3.30;1.80;;;;;;;1.59;99.99;99688.56;1738209;80;21076;-73
2021/11/23 03:40:41;;;;;;;2.90;1.65;;;;;;;1.61;100.00;99679.11;1739008;80;21072;-72
2021/11/23 03:43:10;;;;;;;2.85;1.50;;;;;;;1.63;100.00;99682.53;1746765;80;21085;-73
2021/11/23 03:45:37;;;;;;;2.70;1.82;;;;;;;1.66;100.00;99682.48;1756670;81;21005;-73
2021/11/23 03:48:05;;;;;;;2.02;1.30;;;;;;;1.68;100.00;99676.86;1743946;80;21068;-73
2021/11/23 03:50:33;;;;;;;2.50;1.47;;;;;;;1.71;100.00;99675.53;1748571;80;21193;-73
2021/11/23 03:52:59;;;;;;;;;;;;;;;1.74;100.00;99685.83;1745644;81;21037;-73
2021/11/23 03:55:32;;;;;;;3.50;1.87;;;;;;;1.78;100.00;99683.17;1742638;79;20083;-73
2021/11/23 03:57:57;;;;;;;2.30;1.62;;;;;;;1.78;100.00;99683.17;1747164;79;20987;-73
2021/11/23 04:00:24;;;;;;;2.37;1.60;;;;;;;1.81;100.00;99684.86;1747669;80;21047;-73
2021/11/23 04:02:53;;;;;;;2.22;1.17;;;;;;;1.84;100.00;99684.82;1774609;79;21101;-73
2021/11/23 04:05:19;;;;;;;3.98;1.42;;;;;;;1.88;100.00;99678.78;1753358;79;21034;-73
2021/11/23 04:07:46;;;;;;;3.60;1.60;;;;;;;1.92;100.00;99670.12;1758639;81;21158;-73
2021/11/23 04:10:18;;;;;;;1.80;1.20;;;;;;;1.94;100.00;99667.11;1785932;79;20907;-73
2021/11/23 04:12:50;;;;;;;3.12;1.80;;;;;;;2.00;100.00;99663.16;1746349;80;21075;-73
2021/11/23 04:15:17;;;;;;;2.20;1.70;;;;;;;2.05;100.00;99660.97;1766328;80;21099;-73
2021/11/23 04:17:45;;;;;;;1.65;1.17;;;;;;;2.12;100.00;99671.59;1740855;80;21523;-73
2021/11/23 04:20:12;;;;;;;;;;;;;;;2.17;100.00;99659.50;1765320;79;20993;-73
2021/11/23 04:22:39;;;;;;;2.08;1.42;;;;;;;2.21;100.00;99649.55;1766512;79;26554;-72
2021/11/23 04:25:09;;;;;;;2.30;1.22;;;;;;;2.26;100.00;99646.48;1742652;80;21973;-73
2021/11/23 04:27:36;;;;;;;1.67;1.10;;;;;;;2.31;100.00;99658.86;1755847;81;21607;-73
2021/11/23 04:30:06;;;;;;;1.35;1.17;;;;;;;2.39;100.00;99658.77;1748889;79;21355;-73
2021/11/23 04:32:33;;;;;;;3.42;1.35;;;;;;;2.46;100.00;99659.94;1781120;79;21064;-73
2021/11/23 04:35:00;;;;;;;1.80;1.10;;;;;;;2.55;100.00;99665.80;1775700;79;21381;-73
2021/11/23 04:37:27;;;;;;;3.30;1.27;;;;;;;2.69;100.00;99676.78;1761711;80;21136;-71
2021/11/23 04:39:53;;;;;;;1.57;0.93;;;;;;;2.69;100.00;99676.78;1760745;79;21054;-73
2021/11/23 04:42:20;;;;;;;3.08;1.40;;;;;;;2.78;100.00;99668.88;1759350;79;21609;-73
2021/11/23 04:44:47;;;;;;;1.32;1.05;;;;;;;2.86;100.00;99667.03;1758328;81;21269;-73
2021/11/23 04:47:15;;;;;;;1.32;0.95;;;;;;;2.95;100.00;99665.17;1758129;79;20991;-72
2021/11/23 04:49:41;;;;;;;2.40;0.82;;;;;;;3.02;100.00;99670.17;1727494;81;22690;-73
2021/11/23 04:52:09;;;;;;;1.27;0.80;;;;;;;3.10;100.00;99678.64;1754477;79;20967;-73
2021/11/23 04:54:36;;;;;;;0.93;0.70;;;;;;;3.18;100.00;99668.19;1764570;79;20950;-73
2021/11/23 04:57:03;;;;;;;1.65;0.50;;;;;;;3.25;100.00;99663.75;1762225;81;21060;-73
2021/11/23 04:59:30;;;;;;;1.42;0.75;;;;;;;3.29;100.00;99663.69;1753982;79;21001;-72
2021/11/23 05:01:57;;;;;;;1.85;0.47;;;;;;;3.35;100.00;99660.98;1757311;79;21310;-72
2021/11/23 05:04:25;;;;;;;1.22;0.70;;;;;;;3.42;100.00;99655.70;1756092;81;20993;-72
2021/11/23 05:06:52;;;;;;;0.68;0.57;;;;;;;3.46;100.00;99657.36;1757102;79;21080;-72
2021/11/23 05:09:18;;;;;;;1.25;0.50;;;;;;;3.50;100.00;99660.28;1762123;80;21054;-73
2021/11/23 05:11:48;;;;;;;1.62;0.70;;;;;;;3.56;100.00;99666.64;1760433;79;21545;-73
2021/11/23 05:14:14;;;;;;;1.42;0.98;;;;;;;3.61;100.00;99651.88;1759328;79;21250;-72
2021/11/23 05:16:42;;;;;;;2.70;1.32;;;;;;;3.65;100.00;99669.03;1759342;79;20938;-73
2021/11/23 05:19:09;;;;;;;4.12;1.32;;;;;;;3.68;100.00;99663.80;1756837;79;21120;-72
2021/11/23 05:21:36;;;;;;;3.72;1.87;;;;;;;3.71;100.00;99674.06;1761244;79;21682;-73
2021/11/23 05:24:03;;;;;;;3.25;1.67;;;;;;;3.76;100.00;99677.41;1759540;81;21068;-73
2021/11/23 05:26:31;;;;;;;4.25;2.50;;;;;;;3.79;100.00;99675.20;1756144;81;21073;-73
2021/11/23 05:31:26;;;;;;;1.10;0.90;;;;;;;3.94;100.00;99663.70;1861239;75;22679;-71
2021/11/23 05:33:53;;;;;;;0.82;0.70;;;;;;;3.95;100.00;99665.39;1836787;77;21055;-72
2021/11/23 05:36:20;;;;;;;0.78;0.60;;;;;;;3.97;100.00;99667.50;1834044;77;21085;-71
2021/11/23 05:38:47;;;;;;;1.47;0.70;;;;;;;3.98;100.00;99674.39;1828518;77;20942;-71
2021/11/23 05:41:14;;;;;;;0.82;0.60;;;;;;;3.99;100.00;99677.38;1832680;77;21016;-72
2021/11/23 05:43:41;;;;;;;0.68;0.55;;;;;;;4.01;100.00;99684.66;1833226;76;21004;-72
2021/11/23 05:46:08;;;;;;;1.32;0.70;;;;;;;4.00;100.00;99685.52;1833011;76;21069;-71
2021/11/23 05:48:34;;;;;;;1.75;0.88;;;;;;;4.01;100.00;99682.08;1831411;76;21044;-72
2021/11/23 05:51:05;;;;;;;1.17;0.50;;;;;;;4.00;100.00;99691.53;1833702;77;20951;-72
2021/11/23 05:53:37;;;;;;;0.60;0.50;;;;;;;4.05;100.00;99691.45;1839262;77;20974;-72
2021/11/23 05:56:04;;;;;;;1.02;0.47;;;;;;;4.08;100.00;99695.26;1825694;77;21759;-71
2021/11/23 05:58:32;;;;;;;1.02;0.55;;;;;;;4.09;100.00;99704.73;1802656;77;21040;-72
2021/11/23 06:00:59;;;;;;;0.98;0.65;;;;;;;4.09;100.00;99712.48;1829530;77;21221;-71
2021/11/23 06:03:26;;;;;;;3.05;1.75;;;;;;;4.10;100.00;99709.00;1829844;77;20987;-73
2021/11/23 06:06:20;;;;;;;2.02;1.10;;;;;;;4.15;100.00;99709.77;1833071;76;22722;-72
2021/11/23 06:08:47;;;;;;;1.57;1.00;;;;;;;4.11;100.00;99723.61;1808952;78;21623;-73
2021/11/23 06:11:14;;;;;;;2.58;1.02;;;;;;;4.11;100.00;99726.64;1819653;77;21077;-73
2021/11/23 06:13:41;;;;;;;1.87;1.10;;;;;;;4.09;100.00;99725.81;1814898;78;21023;-73
2021/11/23 06:16:08;;;;;;;1.57;1.17;;;;;;;4.09;100.00;99737.03;1807745;78;21020;-72
2021/11/23 06:18:34;;;;;;;4.22;1.67;;;;;;;4.10;100.00;99738.72;1813675;78;21281;-72
2021/11/23 06:21:04;;;;;;;2.52;1.30;;;;;;;4.10;100.00;99738.72;1813687;78;21091;-74
2021/11/23 06:23:30;;;;;;;1.98;1.22;;;;;;;4.10;100.00;99738.72;1811461;78;21459;-73
2021/11/23 06:25:58;;;;;;;2.07;1.27;;;;;;;4.11;100.00;99750.74;1810598;78;21012;-72
2021/11/23 06:28:24;;;;;;;;;;;;;;;4.12;100.00;99754.20;1814376;78;21000;-72
2021/11/23 06:30:52;;;;;;;2.65;1.62;;;;;;;4.11;100.00;99750.74;1805365;76;20159;-72
2021/11/23 06:33:20;;;;;;;3.77;1.42;;;;;;;4.10;100.00;99759.39;1811052;78;21143;-72
2021/11/23 06:35:47;;;;;;;7.53;1.50;;;;;;;4.11;100.00;99766.25;1811675;78;22299;-73
2021/11/23 06:38:14;;;;;;;2.45;1.55;;;;;;;4.10;100.00;99759.39;1796083;78;22418;-73
2021/11/23 06:40:42;;;;;;;4.15;1.85;;;;;;;4.10;100.00;99756.81;1803767;78;21602;-71
2021/11/23 06:43:10;;;;;;;4.78;2.12;;;;;;;4.10;100.00;99764.56;1811478;78;21069;-71
2021/11/23 06:45:39;;;;;;;4.20;2.00;;;;;;;4.08;100.00;99770.64;1812508;78;21043;-73
2021/11/23 06:48:08;;;;;;;3.67;2.02;;;;;;;4.04;100.00;99767.27;1814804;77;21072;-72
2021/11/23 06:50:36;;;;;;;3.10;2.02;;;;;;;3.99;100.00;99778.13;1808681;78;21024;-73
2021/11/23 06:53:08;;;;;;;4.10;1.80;;;;;;;3.97;100.00;99776.86;1814245;76;21577;-72
2021/11/23 06:55:36;;;;;;;5.20;2.15;;;;;;;3.94;100.00;99770.91;1819242;78;20941;-71
2021/11/23 06:58:43;;;;;;;4.60;2.33;;;;;;;3.94;100.00;99760.13;1827313;76;22485;-71
2021/11/23 07:01:13;;;;;;;5.25;1.95;;;;;;;3.89;100.00;99764.97;1794350;78;21649;-73
2021/11/23 07:03:41;;;;;;;3.70;1.90;;;;;;;3.90;100.00;99766.69;1809241;78;21655;-73
2021/11/23 07:06:11;;;;;;;8.48;1.72;;;;;;;3.92;100.00;99773.53;1787388;78;21846;-73
2021/11/23 07:08:43;;;;;;;3.67;1.42;;;;;;;3.94;100.00;99774.78;1804294;78;21594;-73
2021/11/23 07:11:13;;;;;;;3.72;1.77;;;;;;;3.95;100.00;99780.34;1790035;78;21125;-73
2021/11/23 07:13:43;;;;;;;7.83;2.05;;;;;;;3.98;100.00;99785.48;1790545;78;22302;-72
2021/11/23 07:16:34;;;;;;;2.92;1.45;;;;;;;4.01;100.00;99790.14;1743465;79;21049;-73
2021/11/23 07:19:04;;;;;;;5.62;1.90;;;;;;;4.04;100.00;99806.03;1746187;80;21127;-74
2021/11/23 07:21:32;;;;;;;5.50;2.42;;;;;;;4.08;100.00;99810.24;1738515;80;22229;-73
2021/11/23 07:23:59;;;;;;;4.12;2.12;;;;;;;4.10;100.00;99807.20;1736922;80;22265;-73
2021/11/23 07:26:28;;;;;;;5.08;1.90;;;;;;;4.15;100.00;99814.42;1770349;78;21117;-73
2021/11/23 07:28:59;;;;;;;6.95;2.50;;;;;;;4.17;100.00;99815.25;1768692;79;22333;-74
2021/11/23 07:31:27;;;;;;;4.53;2.60;;;;;;;4.21;100.00;99816.88;1737832;79;21115;-74
2021/11/23 07:33:54;;;;;;;4.62;2.20;;;;;;;4.24;100.00;99823.28;1741243;80;21756;-73
2021/11/23 07:36:23;;;;;;;6.58;2.10;;;;;;;4.28;100.00;99829.67;1765732;79;21684;-74
2021/11/23 07:38:52;;;;;;;2.77;1.70;;;;;;;4.33;100.00;99838.20;1775453;79;21035;-74
2021/11/23 07:41:19;;;;;;;8.70;2.47;;;;;;;4.41;100.00;99840.19;1777673;79;22398;-75
2021/11/23 07:43:47;;;;;;;6.22;1.92;;;;;;;4.47;100.00;99841.35;1759091;79;21045;-73
2021/11/23 07:46:15;;;;;;;8.50;2.12;;;;;;;4.57;100.00;99840.29;1770807;79;21158;-73
2021/11/23 07:48:42;;;;;;;31.95;4.20;;;;;;;4.60;100.00;99853.16;1767157;79;21693;-72
2021/11/23 07:51:09;;;;;;;3.60;1.50;;;;;;;4.65;100.00;99853.91;1769552;79;21099;-74
2021/11/23 07:53:36;;;;;;;4.97;1.70;;;;;;;4.64;100.00;99862.53;1775380;79;21837;-72
2021/11/23 07:56:03;;;;;;;4.77;1.60;;;;;;;4.58;100.00;99862.67;1763285;79;21508;-73
2021/11/23 07:58:33;;;;;;;5.33;1.70;;;;;;;4.56;100.00;99859.25;1764451;79;22021;-72
2021/11/23 08:00:59;;;;;;;4.12;1.50;;;;;;;4.58;100.00;99861.38;1776142;79;21665;-73
2021/11/23 08:03:26;;;;;;;4.22;1.82;;;;;;;4.60;100.00;99866.09;1770768;79;20971;-73
2021/11/23 08:05:53;;;;;;;4.28;1.75;;;;;;;4.54;100.00;99868.80;1773264;79;21060;-73
2021/11/23 08:08:19;;;;;;;3.90;1.55;;;;;;;4.54;100.00;99866.22;1770137;79;21066;-72
2021/11/23 08:10:46;;;;;;;5.23;1.83;;;;;;;4.53;100.00;99872.25;1770255;79;20980;-73
2021/11/23 08:13:14;;;;;;;4.55;1.87;;;;;;;4.48;100.00;99870.19;1768280;79;21024;-72
2021/11/23 08:15:41;;;;;;;6.62;2.15;;;;;;;4.47;100.00;99865.47;1756234;79;21128;-72
2021/11/23 08:18:09;;;;;;;5.10;1.93;;;;;;;4.47;100.00;99877.11;1746302;81;21464;-72
2021/11/23 08:20:37;;;;;;;7.12;1.80;;;;;;;4.44;100.00;99882.78;1741589;81;22026;-73
2021/11/23 08:23:04;;;;;;;;;;;;;;;4.43;100.00;99878.51;1744503;81;20992;-72
2021/11/23 08:25:32;;;;;;;4.78;1.98;;;;;;;4.44;100.00;99886.22;1742300;81;20229;-71
2021/11/23 08:27:58;;;;;;;4.97;2.58;;;;;;;4.44;100.00;99884.08;1731327;81;22300;-72
2021/11/23 08:30:25;;;;;;;5.13;2.20;;;;;;;4.43;100.00;99882.39;1731199;81;22371;-71
2021/11/23 08:32:52;;;;;;;12.90;2.80;;;;;;;4.42;100.00;99889.71;1707741;82;21190;-70
2021/11/23 08:35:19;;;;;;;4.75;2.50;;;;;;;4.41;100.00;99897.06;1712560;82;21107;-71
2021/11/23 08:37:46;;;;;;;13.50;3.52;;;;;;;4.44;100.00;99893.13;1714970;81;21155;-72
2021/11/23 08:40:13;;;;;;;57.78;7.58;;;;;;;4.42;100.00;99894.87;1765096;80;21682;-72
2021/11/23 08:42:41;;;;;;;7.67;3.05;;;;;;;4.47;100.00;99898.23;1771428;79;21093;-71
2021/11/23 08:45:10;;;;;;;5.75;2.42;;;;;;;4.47;100.00;99906.84;1763110;80;21135;-71
2021/11/23 08:47:37;;;;;;;8.05;3.12;;;;;;;4.44;100.00;99914.66;1760419;80;20977;-73
2021/11/23 08:50:07;;;;;;;4.60;2.10;;;;;;;4.44;100.00;99921.56;1765533;80;21086;-73
2021/11/23 08:52:35;;;;;;;13.18;2.98;;;;;;;4.44;100.00;99929.33;1762896;79;21449;-74
2021/11/23 08:55:03;;;;;;;9.50;3.15;;;;;;;4.43;100.00;99928.48;1770560;79;21680;-71
2021/11/23 08:57:30;;;;;;;9.10;2.12;;;;;;;4.44;100.00;99934.50;1730545;81;23462;-71
2021/11/23 09:00:13;;;;;;;6.62;2.52;;;;;;;4.45;100.00;99942.65;1735883;81;21094;-72
2021/11/23 09:02:25;;;;;;;6.42;2.85;;;;;;;4.35;100.00;99945.02;1729539;81;21003;-70
2021/11/23 09:04:52;;;;;;;5.17;1.90;;;;;;;4.29;100.00;99945.13;1714261;82;21100;-70
2021/11/23 09:07:21;;;;;;;16.87;3.33;;;;;;;4.36;100.00;99946.71;1732139;81;21156;-72
2021/11/23 09:09:48;;;;;;;8.03;2.90;;;;;;;4.36;100.00;99946.71;1730096;81;20961;-73
2021/11/23 09:12:15;;;;;;;17.55;3.47;;;;;;;4.47;100.00;99951.24;1764411;79;21196;-72
2021/11/23 09:14:42;;;;;;;3.33;1.47;;;;;;;4.59;100.00;99958.76;1762569;79;21064;-72
2021/11/23 09:17:08;;;;;;;3.73;1.70;;;;;;;4.67;100.00;99955.58;1795728;78;21054;-72
2021/11/23 09:19:37;;;;;;;3.65;1.62;;;;;;;4.78;100.00;99955.37;1791920;78;21607;-73
2021/11/23 09:25:00;;;;;;;3.65;1.37;;;;;;;5.00;100.00;99951.92;1654388;84;21162;-71
2021/11/23 09:27:27;;;;;;;3.95;1.50;;;;;;;5.06;100.00;99954.38;1680350;84;21261;-75
2021/11/23 09:29:53;;;;;;;5.40;1.57;;;;;;;5.08;100.00;99947.44;1671997;84;22109;-76
2021/11/23 09:32:20;;;;;;;3.40;1.60;;;;;;;5.14;100.00;99947.75;1681143;83;21510;-74
2021/11/23 09:34:47;;;;;;;4.20;1.40;;;;;;;5.15;100.00;99952.91;1677552;84;21162;-75
2021/11/23 09:37:14;;;;;;;4.43;1.73;;;;;;;5.11;100.00;99957.72;1679281;84;21708;-73
2021/11/23 09:39:40;;;;;;;5.03;1.60;;;;;;;5.08;100.00;99956.50;1676182;84;21061;-73
2021/11/23 09:42:08;;;;;;;2.23;1.17;;;;;;;5.09;100.00;99959.48;1678993;84;21663;-73
2021/11/23 09:44:36;;;;;;;5.40;1.67;;;;;;;5.04;100.00;99960.05;1679069;84;22013;-73
2021/11/23 09:47:03;;;;;;;3.02;1.30;;;;;;;5.07;100.00;99970.33;1678614;84;21173;-73
2021/11/23 09:49:30;;;;;;;5.12;1.67;;;;;;;5.14;100.00;99968.00;1657067;84;21223;-78
2021/11/23 09:51:58;;;;;;;4.90;1.85;;;;;;;5.14;100.00;99971.89;1686186;84;21103;-78
2021/11/23 09:54:25;;;;;;;2.92;1.00;;;;;;;5.12;100.00;99972.36;1679283;84;21046;-73
2021/11/23 09:56:52;;;;;;;3.75;1.62;;;;;;;5.12;100.00;99971.06;1681922;84;21079;-72
2021/11/23 09:59:19;;;;;;;3.80;1.75;;;;;;;5.12;100.00;99969.77;1686580;84;28306;-73
2021/11/23 10:04:59;;;;;;;4.35;1.70;;;;;;;5.12;100.00;99981.41;1818602;77;22755;-80
2021/11/23 10:07:42;;;;;;;5.78;2.05;;;;;;;5.16;100.00;99977.89;1791719;78;21059;-77
2021/11/23 10:10:18;;;;;;;5.95;1.55;;;;;;;5.16;100.00;99988.25;1758003;78;21135;-73
2021/11/23 10:12:57;;;;;;;3.67;1.30;;;;;;;5.04;99.28;99984.63;1795358;78;20950;-74
2021/11/23 10:15:35;;;;;;;4.45;1.55;;;;;;;4.94;98.96;99986.98;1788740;78;21069;-72
2021/11/23 10:18:19;;;;;;;5.47;1.82;;;;;;;4.97;100.00;99991.25;1785648;78;21057;-73
2021/11/23 10:20:55;;;;;;;5.12;1.80;;;;;;;5.04;100.00;99985.92;1794220;78;20943;-73
2021/11/23 10:23:33;;;;;;;4.22;1.77;;;;;;;5.02;100.00;99995.45;1793295;78;21184;-75
2021/11/23 10:26:18;;;;;;;;;;;;;;;4.99;100.00;100003.28;1788883;78;21036;-74
2021/11/23 10:28:53;;;;;;;5.75;2.10;;;;;;;4.96;99.88;100005.05;1791514;77;20135;-73
2021/11/23 10:31:25;;;;;;;6.85;1.92;;;;;;;4.97;100.00;100010.21;1795295;78;21007;-77
2021/11/23 10:34:14;;;;;;;6.65;1.92;;;;;;;4.96;99.74;100012.81;1778455;78;21070;-76
2021/11/23 10:36:45;;;;;;;7.50;2.22;;;;;;;4.96;99.89;100012.39;1787676;78;21193;-78
2021/11/23 10:39:19;;;;;;;4.35;2.10;;;;;;;4.99;100.00;100010.20;1791498;78;21037;-76
2021/11/23 10:41:56;;;;;;;4.62;1.55;;;;;;;5.00;100.00;100012.73;1790453;78;21223;-76
2021/11/23 10:44:31;;;;;;;9.93;1.92;;;;;;;5.02;100.00;100009.69;1787140;78;21007;-75
2021/11/23 10:47:02;;;;;;;9.95;2.02;;;;;;;5.07;100.00;100009.16;1793000;78;20973;-73
2021/11/23 10:49:34;;;;;;;4.87;1.85;;;;;;;5.14;100.00;100014.59;1782123;78;22056;-73
2021/11/23 10:52:04;;;;;;;3.75;1.60;;;;;;;5.23;100.00;100008.83;1783844;78;21048;-75
2021/11/23 10:54:34;;;;;;;5.78;1.82;;;;;;;5.24;99.64;100015.73;1797707;78;21599;-74
2021/11/23 10:57:06;;;;;;;8.05;1.62;;;;;;;5.23;99.68;100015.30;1797029;78;21085;-73
2021/11/23 10:59:34;;;;;;;3.85;1.65;;;;;;;5.32;100.00;100016.39;1751257;80;21052;-73
2021/11/23 11:02:03;;;;;;;5.25;1.85;;;;;;;5.33;99.08;100022.00;1751112;79;21115;-72
2021/11/23 11:04:37;;;;;;;3.12;1.77;;;;;;;5.28;98.37;100018.65;1754275;79;21255;-74
2021/11/23 11:07:05;;;;;;;3.70;1.42;;;;;;;5.30;98.74;100031.13;1761621;79;21917;-74
2021/11/23 11:09:34;;;;;;;6.85;1.52;;;;;;;5.26;97.99;100024.30;1730149;80;21018;-72
2021/11/23 11:12:02;;;;;;;4.55;1.30;;;;;;;5.26;98.24;100032.06;1721710;81;21087;-72
2021/11/23 11:14:35;;;;;;;2.70;1.40;;;;;;;5.26;97.50;100033.35;1766128;79;21590;-74
2021/11/23 11:16:59;;;;;;;4.50;1.42;;;;;;;5.28;97.98;100038.06;1728619;81;21095;-75
2021/11/23 11:19:43;;;;;;;3.40;1.32;;;;;;;5.27;96.14;100034.63;1742855;80;21079;-77
2021/11/23 11:22:11;;;;;;;4.05;1.20;;;;;;;5.35;97.13;100034.48;1738543;81;21101;-75
2021/11/23 11:24:42;;;;;;;3.90;1.30;;;;;;;5.41;96.58;100040.82;1737110;81;21834;-75
2021/11/23 11:27:29;;;;;;;4.92;1.20;;;;;;;5.38;95.34;100040.89;1737797;81;22219;-76
2021/11/23 11:30:20;;;;;;;4.42;1.50;;;;;;;5.38;94.50;100044.77;1731256;81;21141;-77
2021/11/23 11:32:50;;;;;;;4.37;1.15;;;;;;;5.36;94.89;100047.37;1729809;81;21075;-76
2021/11/23 11:35:29;;;;;;;5.20;1.12;;;;;;;5.32;95.70;100048.76;1737364;81;21054;-77
2021/11/23 11:38:01;;;;;;;3.25;1.37;;;;;;;5.29;96.21;100052.70;1735671;81;21556;-78
2021/11/23 11:40:41;;;;;;;3.25;1.10;;;;;;;5.23;95.38;100052.84;1736976;81;21165;-76
2021/11/23 11:43:10;;;;;;;3.33;0.82;;;;;;;5.12;94.40;100056.92;1741133;81;21107;-75
2021/11/23 11:45:48;;;;;;;4.58;1.30;;;;;;;5.04;94.94;100064.86;1737578;81;22431;-73
2021/11/23 11:48:39;;;;;;;4.72;1.30;;;;;;;4.90;93.44;100060.36;1733718;81;21133;-74
2021/11/23 11:51:31;;;;;;;7.60;1.45;;;;;;;4.81;93.29;100052.78;1737323;81;20997;-75
2021/11/23 11:53:51;;;;;;;4.42;1.15;;;;;;;4.75;94.16;100058.07;1727726;81;22481;-74
2021/11/23 11:56:40;;;;;;;2.90;1.30;;;;;;;4.67;93.78;100059.05;1738840;81;20999;-74